Time;durP1;ratioP1;P1;durP2;ratioP2;P2;SDS_P1;SDS_P2;PMS_P1;PMS_P2;Temp;Humidity;BMP_temperature;BMP_pressure;BME280_temperature;BME280_humidity;BME280_pressure;Samples;Min_cycle;Max_cycle;Signal;HPM_P1;HPM_P2
2021/07/10 00:01:23;;;;;;;32.53;16.67;;;;;;;16.71;100.00;99858.16;1821414;77;22050;-68
2021/07/10 00:03:50;;;;;;;36.63;17.50;;;;;;;16.72;100.00;99855.70;1821149;77;20970;-68
2021/07/10 00:06:16;;;;;;;36.77;18.62;;;;;;;16.76;100.00;99851.89;1821084;77;21567;-68
2021/07/10 00:08:43;;;;;;;42.67;21.35;;;;;;;16.80;100.00;99855.09;1821167;77;20973;-67
2021/07/10 00:11:11;;;;;;;;;;;;;;;16.85;100.00;99850.17;1824235;77;20942;-68
2021/07/10 00:13:39;;;;;;;42.48;22.67;;;;;;;16.91;100.00;99851.19;1821215;77;20131;-68
2021/07/10 00:16:08;;;;;;;49.60;25.17;;;;;;;16.97;100.00;99852.48;1821414;77;20863;-68
2021/07/10 00:18:34;;;;;;;46.90;24.50;;;;;;;17.03;100.00;99856.77;1821648;77;21654;-68
2021/07/10 00:21:01;;;;;;;49.98;25.82;;;;;;;17.07;100.00;99849.09;1805922;78;21489;-68
2021/07/10 00:23:27;;;;;;;57.00;26.82;;;;;;;17.08;100.00;99854.79;1821084;77;20935;-68
2021/07/10 00:25:54;;;;;;;55.90;26.90;;;;;;;17.09;100.00;99846.91;1821487;77;21110;-68
2021/07/10 00:28:21;;;;;;;59.58;27.50;;;;;;;17.15;100.00;99851.73;1821135;77;20970;-69
2021/07/10 00:30:48;;;;;;;60.00;30.10;;;;;;;17.23;100.00;99853.00;1821749;78;20928;-68
2021/07/10 00:33:14;;;;;;;61.80;30.12;;;;;;;17.29;100.00;99853.98;1820298;77;20931;-68
2021/07/10 00:35:41;;;;;;;59.10;29.57;;;;;;;17.33;100.00;99845.52;1821212;77;21539;-69
2021/07/10 00:38:07;;;;;;;60.17;28.15;;;;;;;17.33;100.00;99843.36;1821486;77;21839;-69
2021/07/10 00:40:34;;;;;;;48.70;24.02;;;;;;;17.31;100.00;99842.84;1821342;77;20997;-68
2021/07/10 00:43:02;;;;;;;35.83;21.90;;;;;;;17.31;100.00;99836.06;1821609;77;21539;-68
2021/07/10 00:45:31;;;;;;;32.93;19.15;;;;;;;17.32;100.00;99838.50;1821248;77;20998;-69
2021/07/10 00:48:00;;;;;;;49.93;21.25;;;;;;;17.34;100.00;99839.02;1821292;77;21053;-68
2021/07/10 00:50:27;;;;;;;43.68;19.55;;;;;;;17.35;100.00;99827.05;1821506;77;21128;-68
2021/07/10 00:52:54;;;;;;;39.33;18.87;;;;;;;17.38;100.00;99827.02;1821290;77;20973;-68
2021/07/10 00:55:21;;;;;;;39.25;17.73;;;;;;;17.33;100.00;99818.39;1805505;78;20922;-69
2021/07/10 00:57:50;;;;;;;32.17;17.20;;;;;;;17.31;100.00;99817.87;1821461;77;20910;-68
2021/07/10 01:00:20;;;;;;;26.20;16.10;;;;;;;17.28;100.00;99812.23;1821347;77;21512;-69
2021/07/10 01:02:48;;;;;;;21.55;14.78;;;;;;;17.24;100.00;99807.92;1821250;77;21825;-69
2021/07/10 01:05:27;;;;;;;25.45;15.03;;;;;;;17.21;100.00;99804.45;1821139;77;21029;-69
2021/07/10 01:07:57;;;;;;;17.92;11.97;;;;;;;17.18;100.00;99798.81;1821231;77;21084;-69
2021/07/10 01:10:27;;;;;;;23.42;12.30;;;;;;;17.13;100.00;99799.69;1821251;77;21820;-69
2021/07/10 01:12:55;;;;;;;23.12;12.85;;;;;;;17.11;100.00;99805.39;1821368;77;20886;-69
2021/07/10 01:15:24;;;;;;;22.48;14.10;;;;;;;17.09;100.00;99805.42;1821292;77;21151;-69
2021/07/10 01:17:56;;;;;;;26.52;12.45;;;;;;;17.07;100.00;99804.90;1821192;77;20882;-70
2021/07/10 01:20:22;;;;;;;18.70;10.88;;;;;;;17.05;100.00;99808.45;1821307;77;20914;-69
2021/07/10 01:22:50;;;;;;;15.88;10.82;;;;;;;17.05;100.00;99803.02;1821499;77;20902;-69
2021/07/10 01:25:22;;;;;;;21.33;10.53;;;;;;;17.07;100.00;99804.90;1820740;77;20922;-69
2021/07/10 01:27:52;;;;;;;17.85;10.95;;;;;;;17.06;100.00;99798.67;1821382;77;21033;-69
2021/07/10 01:30:20;;;;;;;17.77;11.38;;;;;;;17.07;100.00;99798.92;1805192;78;20965;-69
2021/07/10 01:32:51;;;;;;;18.32;10.75;;;;;;;17.07;100.00;99798.92;1821447;77;20874;-69
2021/07/10 01:35:19;;;;;;;16.02;10.60;;;;;;;17.07;100.00;99799.48;1821324;77;20883;-69
2021/07/10 01:37:45;;;;;;;11.48;10.28;;;;;;;17.05;100.00;99797.59;1821537;77;20964;-69
2021/07/10 01:40:19;;;;;;;16.17;10.70;;;;;;;17.06;100.00;99801.95;1821404;77;21445;-69
2021/07/10 01:42:49;;;;;;;16.80;10.90;;;;;;;17.06;100.00;99797.32;1821155;77;20926;-69
2021/07/10 01:45:20;;;;;;;15.20;10.82;;;;;;;17.09;100.00;99800.00;1821226;77;20990;-69
2021/07/10 01:47:50;;;;;;;19.23;11.10;;;;;;;17.11;100.00;99806.75;1821546;77;20914;-69
2021/07/10 01:50:17;;;;;;;17.30;10.90;;;;;;;17.11;100.00;99803.23;1821278;77;20968;-68
2021/07/10 01:52:44;;;;;;;15.00;10.43;;;;;;;17.12;100.00;99809.73;1821402;77;21637;-69
2021/07/10 01:55:12;;;;;;;15.83;10.45;;;;;;;17.13;100.00;99805.11;1821222;77;21036;-69
2021/07/10 01:57:39;;;;;;;;;;;;;;;17.16;100.00;99801.81;1823791;77;21615;-69
2021/07/10 02:00:12;;;;;;;13.70;9.73;;;;;;;17.18;100.00;99798.27;1821507;77;20111;-69
2021/07/10 02:02:42;;;;;;;21.20;11.73;;;;;;;17.16;100.00;99793.67;1821217;77;20871;-70
2021/07/10 02:05:11;;;;;;;35.98;10.68;;;;;;;17.11;100.00;99799.16;1821414;77;21556;-69
2021/07/10 02:07:39;;;;;;;67.35;14.95;;;;;;;17.07;100.00;99804.34;1821479;77;20969;-70
2021/07/10 02:10:11;;;;;;;143.02;18.50;;;;;;;17.06;100.00;99801.95;1821705;77;20871;-70
2021/07/10 02:12:45;;;;;;;65.03;15.10;;;;;;;17.03;100.00;99806.05;1821596;77;20966;-69
2021/07/10 02:15:13;;;;;;;56.40;15.65;;;;;;;17.04;100.00;99805.48;1821511;77;21033;-70
2021/07/10 02:17:44;;;;;;;55.70;13.48;;;;;;;17.05;100.00;99806.56;1821607;77;21125;-69
2021/07/10 02:20:15;;;;;;;49.13;13.55;;;;;;;17.08;100.00;99809.25;1821239;77;20951;-69
2021/07/10 02:22:43;;;;;;;57.03;14.65;;;;;;;17.10;100.00;99798.92;1821130;77;20942;-69
2021/07/10 02:25:12;;;;;;;41.88;13.03;;;;;;;17.13;100.00;99803.75;1821359;77;21008;-70
2021/07/10 02:27:39;;;;;;;42.80;11.85;;;;;;;17.19;100.00;99803.13;1821404;77;21010;-70
2021/07/10 02:30:18;;;;;;;;;;;;;;;17.28;100.00;99807.61;1824068;77;20866;-70
2021/07/10 02:32:46;;;;;;;59.18;14.28;;;;;;;17.38;100.00;99808.02;1821049;77;20095;-70
2021/07/10 02:35:14;;;;;;;54.00;13.35;;;;;;;17.49;100.00;99812.22;1821122;77;20941;-69
2021/07/10 02:37:41;;;;;;;36.13;11.97;;;;;;;17.65;100.00;99814.70;1821539;77;21622;-70
2021/07/10 02:40:11;;;;;;;43.40;11.63;;;;;;;17.75;100.00;99815.91;1821498;77;20962;-70
2021/07/10 02:42:38;;;;;;;45.95;11.93;;;;;;;17.86;100.00;99807.89;1821260;77;21490;-70
2021/07/10 02:45:09;;;;;;;23.57;11.03;;;;;;;17.96;100.00;99806.93;1821069;77;21394;-70
2021/07/10 02:47:36;;;;;;;31.93;10.65;;;;;;;18.07;100.00;99802.92;1821517;77;21564;-70
2021/07/10 02:50:12;;;;;;;26.85;10.70;;;;;;;18.15;100.00;99802.26;1821497;77;21009;-71
2021/07/10 02:52:41;;;;;;;38.33;10.88;;;;;;;18.25;100.00;99801.81;1821463;77;20990;-71
2021/07/10 02:55:09;;;;;;;23.30;10.32;;;;;;;18.30;100.00;99809.86;1821719;77;21480;-70
2021/07/10 02:57:35;;;;;;;18.52;10.48;;;;;;;18.34;100.00;99809.53;1821134;77;20930;-70
2021/07/10 03:00:07;;;;;;;25.37;10.85;;;;;;;18.41;100.00;99805.88;1821369;77;20839;-70
2021/07/10 03:02:36;;;;;;;25.05;11.83;;;;;;;18.45;100.00;99801.46;1821670;77;20985;-70
2021/07/10 03:05:06;;;;;;;24.27;11.73;;;;;;;18.53;100.00;99801.31;1821399;77;20958;-70
2021/07/10 03:07:39;;;;;;;19.35;11.50;;;;;;;18.56;100.00;99805.58;1821074;77;20973;-70
2021/07/10 03:10:08;;;;;;;16.45;10.82;;;;;;;18.66;100.00;99808.66;1821170;77;20897;-69
2021/07/10 03:12:37;;;;;;;19.42;10.80;;;;;;;18.80;100.00;99800.55;1821513;77;20957;-70
2021/07/10 03:15:07;;;;;;;17.07;11.40;;;;;;;18.95;100.00;99804.88;1821443;77;20958;-69
2021/07/10 03:17:36;;;;;;;14.70;10.43;;;;;;;19.08;100.00;99799.96;1821243;77;20994;-70
2021/07/10 03:20:05;;;;;;;16.90;10.38;;;;;;;19.14;100.00;99796.04;1821451;77;20957;-70
2021/07/10 03:22:32;;;;;;;27.52;10.28;;;;;;;19.13;100.00;99795.77;1821234;77;20959;-70
2021/07/10 03:25:01;;;;;;;23.27;10.98;;;;;;;19.15;100.00;99797.64;1821634;77;20972;-69
2021/07/10 03:27:29;;;;;;;16.50;9.78;;;;;;;19.20;100.00;99794.80;1821351;77;21016;-70
2021/07/10 03:29:56;;;;;;;36.48;10.93;;;;;;;19.30;100.00;99789.70;1821285;77;20965;-70
2021/07/10 03:32:23;;;;;;;12.98;9.70;;;;;;;19.41;100.00;99784.85;1821326;77;21112;-70
2021/07/10 03:34:50;;;;;;;23.22;10.35;;;;;;;19.43;100.00;99788.08;1820804;77;21017;-70
2021/07/10 03:37:17;;;;;;;22.58;12.33;;;;;;;19.41;100.00;99783.48;1820837;77;20977;-70
2021/07/10 03:39:43;;;;;;;21.27;12.18;;;;;;;19.37;100.00;99775.68;1821408;77;20914;-69
2021/07/10 03:42:10;;;;;;;37.85;28.10;;;;;;;19.42;100.00;99775.00;1821648;77;20989;-70
2021/07/10 03:44:36;;;;;;;22.15;16.93;;;;;;;19.55;100.00;99779.34;1821350;77;21112;-70
2021/07/10 03:47:04;;;;;;;12.20;10.90;;;;;;;19.64;100.00;99785.67;1821506;77;20839;-70
2021/07/10 03:49:32;;;;;;;21.27;11.33;;;;;;;19.58;100.00;99776.83;1805618;78;20879;-70
2021/07/10 03:52:00;;;;;;;18.67;11.12;;;;;;;19.60;100.00;99775.14;1821669;77;20906;-70
2021/07/10 03:54:28;;;;;;;12.25;9.18;;;;;;;19.83;100.00;99776.80;1821324;77;20855;-70
2021/07/10 03:56:57;;;;;;;14.40;9.30;;;;;;;20.10;100.00;99776.41;1821527;77;21124;-70
2021/07/10 03:59:27;;;;;;;15.32;9.80;;;;;;;20.31;100.00;99778.86;1821417;77;20978;-70
2021/07/10 04:01:54;;;;;;;15.03;9.48;;;;;;;20.75;100.00;99772.25;1821566;77;20930;-70
2021/07/10 04:04:21;;;;;;;15.53;10.23;;;;;;;20.75;100.00;99772.25;1821228;77;21041;-70
2021/07/10 04:06:48;;;;;;;14.63;8.75;;;;;;;20.81;100.00;99767.45;1821760;77;20932;-70
2021/07/10 04:09:14;;;;;;;17.25;9.95;;;;;;;21.02;100.00;99769.00;1821539;77;22156;-70
2021/07/10 04:11:44;;;;;;;15.53;9.83;;;;;;;21.22;100.00;99767.62;1821504;77;20871;-70
2021/07/10 04:14:12;;;;;;;21.33;10.88;;;;;;;21.31;100.00;99764.31;1821273;77;20946;-70
2021/07/10 04:16:40;;;;;;;18.02;11.25;;;;;;;21.36;100.00;99760.88;1821674;77;21626;-70
2021/07/10 04:19:08;;;;;;;22.30;13.43;;;;;;;21.43;100.00;99763.14;1821620;77;21450;-70
2021/07/10 04:21:36;;;;;;;22.58;13.20;;;;;;;21.44;100.00;99765.34;1821660;77;21107;-70
2021/07/10 04:24:04;;;;;;;31.62;15.35;;;;;;;21.50;100.00;99770.29;1805615;78;21449;-70
2021/07/10 04:26:30;;;;;;;23.73;14.50;;;;;;;21.72;100.00;99776.15;1821835;77;20922;-70
2021/07/10 04:28:59;;;;;;;26.70;15.43;;;;;;;21.99;100.00;99772.25;1821370;77;20962;-69
2021/07/10 04:31:26;;;;;;;26.65;16.00;;;;;;;22.09;100.00;99769.73;1821495;77;21470;-70
2021/07/10 04:33:53;;;;;;;31.85;16.93;;;;;;;22.24;100.00;99777.47;1821600;77;21689;-70
2021/07/10 04:36:19;;;;;;;25.90;15.90;;;;;;;22.32;100.00;99767.63;1821551;77;20992;-70
2021/07/10 04:38:47;;;;;;;17.73;12.05;;;;;;;22.39;100.00;99772.03;1821508;77;20874;-70
2021/07/10 04:41:18;;;;;;;14.43;10.25;;;;;;;22.38;100.00;99772.34;1820084;77;20921;-70
2021/07/10 04:43:46;;;;;;;22.05;11.05;;;;;;;22.32;100.00;99769.53;1820513;77;21504;-69
2021/07/10 04:46:13;;;;;;;24.43;10.80;;;;;;;22.33;100.00;99763.75;1821071;77;21580;-70
2021/07/10 04:48:41;;;;;;;20.45;11.60;;;;;;;22.19;100.00;99762.55;1820942;77;20954;-70
2021/07/10 04:51:09;;;;;;;15.15;9.53;;;;;;;22.17;100.00;99769.47;1820852;77;20965;-70
2021/07/10 04:53:37;;;;;;;16.27;8.83;;;;;;;22.32;100.00;99764.89;1820733;77;20977;-69
2021/07/10 04:56:19;;;;;;;13.03;8.83;;;;;;;22.35;100.00;99770.27;1820815;77;20926;-70
2021/07/10 04:58:46;;;;;;;10.15;8.33;;;;;;;22.24;100.00;99769.80;1733564;82;21170;-70
2021/07/10 05:01:17;;;;;;;12.07;8.48;;;;;;;22.28;100.00;99774.07;1766780;81;21371;-70
2021/07/10 05:03:41;;;;;;;13.40;8.35;;;;;;;22.33;100.00;99766.48;1722726;82;20911;-70
2021/07/10 05:06:09;;;;;;;17.00;8.45;;;;;;;22.38;100.00;99769.61;1733234;82;20919;-70
2021/07/10 05:08:36;;;;;;;18.67;8.60;;;;;;;22.47;100.00;99772.55;1732474;82;21065;-71
2021/07/10 05:11:05;;;;;;;10.48;7.83;;;;;;;22.75;100.00;99778.14;1733240;82;20883;-70
2021/07/10 05:17:27;;;;;;;17.57;8.73;;;;;;;23.26;100.00;99773.52;1732872;82;21001;-70
2021/07/10 05:19:54;;;;;;;15.65;7.87;;;;;;;23.81;100.00;99778.48;1716251;82;20958;-70
2021/07/10 05:22:23;;;;;;;9.60;6.87;;;;;;;24.18;100.00;99782.95;1695489;83;20970;-70
2021/07/10 05:24:51;;;;;;;13.95;7.62;;;;;;;24.51;100.00;99779.94;1740376;81;20957;-70
2021/07/10 05:27:18;;;;;;;16.60;7.85;;;;;;;24.41;100.00;99783.89;1739896;81;20818;-70
2021/07/10 05:29:44;;;;;;;11.83;7.58;;;;;;;24.17;100.00;99778.59;1769459;79;20921;-70
2021/07/10 05:32:11;;;;;;;22.95;7.28;;;;;;;24.32;100.00;99781.81;1769799;81;20978;-70
2021/07/10 05:34:38;;;;;;;13.40;7.72;;;;;;;24.70;100.00;99785.66;1769791;81;20917;-67
2021/07/10 05:37:06;;;;;;;10.08;6.67;;;;;;;24.81;100.00;99786.00;1769838;81;21310;-67
2021/07/10 05:39:33;;;;;;;;;;;;;;;24.81;100.00;99790.91;1772187;81;20913;-69
2021/07/10 05:41:59;;;;;;;12.95;7.58;;;;;;;24.73;100.00;99790.47;1769744;81;20145;-68
2021/07/10 05:44:26;;;;;;;9.40;7.15;;;;;;;24.54;100.00;99785.53;1769173;79;21494;-68
2021/07/10 05:46:52;;;;;;;10.70;7.37;;;;;;;24.68;100.00;99792.64;1770102;79;20957;-68
2021/07/10 05:49:19;;;;;;;11.03;7.40;;;;;;;25.00;100.00;99790.91;1770263;79;21174;-67
2021/07/10 05:51:46;;;;;;;28.15;7.92;;;;;;;25.30;100.00;99786.55;1770150;80;20967;-68
2021/07/10 05:54:13;;;;;;;17.95;8.38;;;;;;;25.42;100.00;99793.38;1749761;79;20915;-67
2021/07/10 05:56:41;;;;;;;14.73;8.13;;;;;;;25.57;100.00;99793.22;1737452;80;20875;-67
2021/07/10 05:59:08;;;;;;;18.85;7.53;;;;;;;25.34;100.00;99795.13;1737492;81;20816;-68
2021/07/10 06:01:37;;;;;;;10.32;7.00;;;;;;;25.16;100.00;99795.11;1736849;81;21127;-68
2021/07/10 06:04:04;;;;;;;8.65;6.83;;;;;;;25.33;100.00;99795.45;1737440;81;21033;-69
2021/07/10 06:06:31;;;;;;;12.07;6.95;;;;;;;25.80;100.00;99800.37;1737766;81;20875;-69
2021/07/10 06:09:00;;;;;;;9.45;7.05;;;;;;;26.32;100.00;99804.14;1737431;81;21004;-69
2021/07/10 06:11:27;;;;;;;;;;;;;;;26.48;95.36;99804.38;1752609;81;21439;-69
2021/07/10 06:13:54;;;;;;;19.27;7.70;;;;;;;26.54;95.33;99798.64;1768975;80;21137;-68
2021/07/10 06:16:22;;;;;;;8.95;6.67;;;;;;;26.62;94.64;99804.53;1748647;82;20881;-68
2021/07/10 06:18:50;;;;;;;9.58;6.65;;;;;;;27.18;92.93;99810.37;1767077;81;20920;-68
2021/07/10 06:21:17;;;;;;;10.93;6.40;;;;;;;27.65;88.21;99813.56;1767931;79;20904;-68
2021/07/10 06:23:45;;;;;;;16.93;5.97;;;;;;;27.64;87.50;99807.26;1750594;80;21365;-69
2021/07/10 06:26:12;;;;;;;13.58;5.90;;;;;;;27.84;83.73;99807.28;1710113;82;21432;-69
2021/07/10 06:28:40;;;;;;;16.42;5.60;;;;;;;27.96;81.17;99809.89;1703926;82;20964;-70
2021/07/10 06:31:07;;;;;;;7.83;5.58;;;;;;;27.98;77.42;99813.09;1725572;80;21414;-70
2021/07/10 06:33:36;;;;;;;10.38;5.10;;;;;;;27.90;75.45;99809.37;1752611;80;20970;-70
2021/07/10 06:36:13;;;;;;;8.25;5.78;;;;;;;27.78;74.71;99806.73;1768128;81;21437;-70
2021/07/10 06:38:40;;;;;;;8.13;5.90;;;;;;;27.78;74.90;99806.17;1705495;82;21384;-69
2021/07/10 06:41:07;;;;;;;19.17;6.20;;;;;;;28.07;73.47;99803.97;1762591;81;20987;-70
2021/07/10 06:44:01;;;;;;;10.18;4.40;;;;;;;28.13;71.38;99811.39;1738526;81;26500;-70
2021/07/10 06:46:31;;;;;;;10.78;5.35;;;;;;;28.21;71.22;99813.11;1699139;83;21053;-68
2021/07/10 06:49:02;;;;;;;7.53;4.60;;;;;;;28.34;67.24;99822.01;1699152;84;21026;-68
2021/07/10 06:51:34;;;;;;;7.28;4.30;;;;;;;28.57;66.75;99818.70;1696768;83;21290;-69
2021/07/10 06:54:33;;;;;;;5.75;4.47;;;;;;;28.72;65.76;99818.36;1614011;88;20995;-69
2021/07/10 06:57:00;;;;;;;6.72;4.55;;;;;;;28.99;65.54;99819.77;1637687;86;21044;-69
2021/07/10 06:59:27;;;;;;;8.75;3.92;;;;;;;29.30;63.99;99820.61;1605155;89;21577;-70
2021/07/10 07:01:53;;;;;;;10.23;4.45;;;;;;;29.56;62.06;99817.81;1606180;89;21455;-70
2021/07/10 07:04:20;;;;;;;8.18;3.65;;;;;;;29.59;62.73;99819.81;1605627;89;21713;-70
2021/07/10 07:06:47;;;;;;;9.48;4.12;;;;;;;29.73;55.53;99818.45;1605839;89;20985;-69
2021/07/10 07:09:14;;;;;;;9.05;4.35;;;;;;;29.85;57.02;99822.34;1605476;89;21046;-70
2021/07/10 07:11:41;;;;;;;11.22;4.33;;;;;;;29.76;57.83;99816.30;1605924;89;21012;-70
2021/07/10 07:14:09;;;;;;;10.28;4.30;;;;;;;29.58;59.59;99814.09;1605787;89;21023;-70
2021/07/10 07:16:35;;;;;;;8.55;4.62;;;;;;;29.55;57.61;99816.82;1606076;89;21164;-69
2021/07/10 07:19:02;;;;;;;7.78;4.58;;;;;;;29.58;57.29;99818.83;1605930;89;21057;-70
2021/07/10 07:21:30;;;;;;;5.10;3.92;;;;;;;29.67;56.27;99817.41;1635663;87;21027;-70
2021/07/10 07:23:58;;;;;;;6.00;3.80;;;;;;;29.64;57.39;99815.92;1630805;87;21017;-69
2021/07/10 07:26:25;;;;;;;5.42;3.90;;;;;;;29.71;53.62;99817.43;1587451;89;21033;-70
2021/07/10 07:28:52;;;;;;;7.35;4.15;;;;;;;29.57;53.08;99819.42;1608955;89;21060;-70
2021/07/10 07:31:20;;;;;;;9.58;4.17;;;;;;;29.67;53.94;99813.84;1635321;83;21468;-70
2021/07/10 07:33:47;;;;;;;5.80;4.35;;;;;;;30.01;52.59;99809.09;1731398;82;20993;-70
2021/07/10 07:36:15;;;;;;;15.65;4.70;;;;;;;30.24;50.97;99809.52;1737053;82;20932;-69
2021/07/10 07:38:42;;;;;;;;;;;;;;;30.06;47.98;99803.22;1760372;80;20984;-69
2021/07/10 07:41:10;;;;;;;11.25;4.58;;;;;;;30.24;48.75;99810.31;1752021;81;21134;-69
2021/07/10 07:43:36;;;;;;;6.20;3.65;;;;;;;30.31;47.60;99801.31;1749613;81;21350;-69
2021/07/10 07:46:04;;;;;;;8.63;4.33;;;;;;;30.58;48.63;99806.70;1721464;83;20973;-70
2021/07/10 07:48:31;;;;;;;10.93;4.67;;;;;;;30.51;47.29;99804.65;1729771;83;21438;-70
2021/07/10 07:51:02;;;;;;;7.62;4.58;;;;;;;30.05;48.86;99807.14;1730064;83;20991;-70
2021/07/10 07:53:28;;;;;;;10.15;4.80;;;;;;;30.16;47.68;99803.69;1728762;82;21129;-70
2021/07/10 07:55:55;;;;;;;10.15;4.42;;;;;;;30.22;47.49;99804.95;1722023;82;21035;-69
2021/07/10 07:58:22;;;;;;;6.42;4.35;;;;;;;30.55;44.56;99804.89;1728090;81;20958;-68
2021/07/10 08:00:50;;;;;;;6.00;4.25;;;;;;;30.67;42.76;99813.50;1734440;81;21105;-70
2021/07/10 08:03:18;;;;;;;13.85;5.15;;;;;;;30.93;44.50;99808.36;1768898;79;20865;-69
2021/07/10 08:05:45;;;;;;;7.20;4.60;;;;;;;30.53;41.51;99817.53;1765702;79;21132;-69
2021/07/10 08:08:14;;;;;;;36.50;6.45;;;;;;;30.36;39.19;99814.80;1736403;79;20900;-70
2021/07/10 08:10:40;;;;;;;6.42;4.30;;;;;;;30.32;40.35;99813.38;1762567;80;21009;-70
2021/07/10 08:13:07;;;;;;;14.33;4.22;;;;;;;30.53;44.03;99811.40;1735470;81;21030;-67
2021/07/10 08:15:33;;;;;;;10.37;4.83;;;;;;;30.27;44.28;99812.34;1779501;80;20893;-68
2021/07/10 08:18:02;;;;;;;6.95;5.05;;;;;;;30.84;43.07;99814.03;1786851;79;21681;-68
2021/07/10 08:20:30;;;;;;;11.73;4.70;;;;;;;31.54;42.87;99817.05;1782099;79;20961;-68
2021/07/10 08:22:57;;;;;;;8.98;4.87;;;;;;;31.69;42.33;99812.36;1782645;79;20937;-68
2021/07/10 08:25:24;;;;;;;5.87;4.58;;;;;;;32.03;39.29;99817.66;1768581;79;21060;-67
2021/07/10 08:27:51;;;;;;;;;;;;;;;31.94;39.11;99809.69;1703221;82;21452;-68
2021/07/10 08:30:18;;;;;;;7.45;4.45;;;;;;;31.87;40.13;99806.07;1701109;82;21112;-68
2021/07/10 08:32:48;;;;;;;10.03;4.87;;;;;;;31.26;40.90;99809.38;1700527;83;21420;-68
2021/07/10 08:35:15;;;;;;;9.48;4.47;;;;;;;31.16;40.89;99803.15;1729299;81;21331;-69
2021/07/10 08:37:43;;;;;;;6.17;4.62;;;;;;;31.28;41.89;99800.05;1792005;79;20935;-69
2021/07/10 08:40:12;;;;;;;7.90;4.65;;;;;;;31.24;40.41;99805.40;1766230;81;20930;-69
2021/07/10 08:42:39;;;;;;;9.90;4.25;;;;;;;31.38;42.97;99802.11;1766826;81;21824;-68
2021/07/10 08:45:10;;;;;;;15.18;5.10;;;;;;;31.82;39.19;99808.06;1762551;79;20901;-69
2021/07/10 08:47:39;;;;;;;7.28;4.83;;;;;;;31.76;42.50;99808.22;1775372;80;21027;-69
2021/07/10 08:50:09;;;;;;;8.90;4.92;;;;;;;31.54;40.71;99802.39;1775542;80;20956;-69
2021/07/10 08:52:36;;;;;;;8.90;4.55;;;;;;;30.90;41.60;99798.05;1749533;80;20964;-69
2021/07/10 08:55:04;;;;;;;;;;;;;;;30.77;41.37;99796.73;1772740;80;21107;-68
2021/07/10 08:57:35;;;;;;;9.10;4.33;;;;;;;30.58;41.98;99792.25;1742036;79;20406;-69
2021/07/10 09:00:11;;;;;;;14.58;5.67;;;;;;;30.90;41.34;99798.05;1742824;82;20886;-67
2021/07/10 09:02:41;;;;;;;10.70;4.87;;;;;;;31.10;41.71;99801.94;1743468;81;21092;-68
2021/07/10 09:05:09;;;;;;;9.95;4.83;;;;;;;31.13;41.41;99802.55;1741581;82;21443;-68
2021/07/10 09:08:13;;;;;;;7.00;5.35;;;;;;;31.11;39.77;99801.54;1744741;81;21041;-68
2021/07/10 09:10:41;;;;;;;7.80;5.15;;;;;;;31.13;39.49;99806.70;1732548;82;21499;-68
2021/07/10 09:13:08;;;;;;;11.15;5.15;;;;;;;31.04;39.48;99800.13;1736643;80;20993;-68
2021/07/10 09:15:35;;;;;;;9.83;4.60;;;;;;;30.69;39.77;99801.42;1735779;81;20945;-68
2021/07/10 09:18:09;;;;;;;5.08;4.40;;;;;;;30.52;39.78;99808.41;1723305;83;20933;-69
2021/07/10 09:20:37;;;;;;;8.18;5.08;;;;;;;30.53;39.13;99803.09;1727412;81;21176;-68
2021/07/10 09:23:26;;;;;;;9.25;4.75;;;;;;;30.57;38.92;99803.11;1743104;81;21007;-69
2021/07/10 09:25:53;;;;;;;19.32;5.58;;;;;;;31.32;37.92;99800.88;1753300;81;20945;-69
2021/07/10 09:28:28;;;;;;;11.78;5.53;;;;;;;31.79;38.13;99803.87;1754120;81;21056;-67
2021/07/10 09:30:55;;;;;;;9.68;4.83;;;;;;;32.02;39.56;99794.66;1738216;80;20965;-68
2021/07/10 09:33:23;;;;;;;15.15;5.12;;;;;;;32.00;39.10;99799.80;1716111;81;21214;-69
2021/07/10 09:36:00;;;;;;;8.43;4.97;;;;;;;31.67;38.56;99795.30;1738808;81;20902;-68
2021/07/10 09:38:33;;;;;;;12.47;4.92;;;;;;;31.33;41.00;99792.75;1750248;81;21015;-69
2021/07/10 09:41:06;;;;;;;9.30;4.75;;;;;;;31.10;41.20;99802.73;1742658;81;20992;-70
2021/07/10 09:43:36;;;;;;;16.02;5.47;;;;;;;30.74;41.31;99795.52;1741176;81;21037;-68
2021/07/10 09:46:08;;;;;;;7.05;4.72;;;;;;;30.30;40.52;99785.86;1744247;81;21656;-69
2021/07/10 09:51:45;;;;;;;8.13;5.03;;;;;;;30.13;41.10;99775.61;1637132;86;21013;-70
2021/07/10 09:54:13;;;;;;;7.40;5.28;;;;;;;30.54;39.07;99776.97;1662856;84;21096;-68
2021/07/10 09:57:05;;;;;;;25.43;5.10;;;;;;;31.34;39.42;99779.10;1643994;87;21456;-69
2021/07/10 09:59:47;;;;;;;7.50;5.53;;;;;;;31.48;40.70;99778.41;1666975;85;21132;-67
2021/07/10 10:02:17;;;;;;;8.65;5.20;;;;;;;31.78;38.06;99775.33;1668866;84;20940;-69
2021/07/10 10:04:45;;;;;;;11.25;5.60;;;;;;;31.72;38.83;99774.71;1683735;84;20921;-69
2021/07/10 10:07:15;;;;;;;12.82;4.97;;;;;;;31.67;39.76;99773.70;1676148;84;21026;-69
2021/07/10 10:09:42;;;;;;;9.08;4.85;;;;;;;32.15;39.33;99763.73;1646767;86;21015;-70
2021/07/10 10:12:15;;;;;;;6.05;4.33;;;;;;;32.53;36.59;99765.55;1669185;84;21747;-68
2021/07/10 10:14:49;;;;;;;6.30;4.97;;;;;;;32.09;35.86;99771.64;1668852;84;21002;-69
2021/07/10 10:17:18;;;;;;;12.45;5.28;;;;;;;31.63;36.39;99772.89;1669704;86;21661;-69
2021/07/10 10:19:45;;;;;;;8.53;5.33;;;;;;;31.63;36.82;99764.00;1669610;86;20979;-68
2021/07/10 10:22:13;;;;;;;7.65;4.60;;;;;;;32.08;37.58;99772.06;1647068;86;21090;-67
2021/07/10 10:24:44;;;;;;;8.53;4.70;;;;;;;32.33;37.52;99763.14;1675506;84;21126;-67
2021/07/10 10:27:11;;;;;;;9.03;5.00;;;;;;;32.06;37.32;99768.28;1707578;81;20921;-67
2021/07/10 10:29:38;;;;;;;8.05;5.50;;;;;;;31.76;36.64;99765.22;1762245;81;20877;-68
2021/07/10 10:32:06;;;;;;;7.40;5.28;;;;;;;31.53;37.86;99754.45;1761583;81;20956;-68
2021/07/10 10:34:36;;;;;;;6.87;5.03;;;;;;;31.83;38.38;99756.13;1769051;80;21415;-68
2021/07/10 10:37:05;;;;;;;9.25;5.25;;;;;;;32.03;36.73;99753.80;1746859;80;20868;-68
2021/07/10 10:39:37;;;;;;;7.35;5.03;;;;;;;32.23;37.51;99754.22;1719464;82;21534;-67
2021/07/10 10:42:21;;;;;;;8.88;4.65;;;;;;;32.02;35.54;99751.63;1759456;81;20921;-66
2021/07/10 10:44:48;;;;;;;7.50;5.10;;;;;;;32.15;35.93;99745.69;1726027;81;20943;-67
2021/07/10 10:47:15;;;;;;;8.53;4.65;;;;;;;32.31;38.15;99743.90;1766327;80;20976;-67
2021/07/10 10:49:47;;;;;;;9.45;5.00;;;;;;;31.81;38.49;99730.73;1753602;81;21102;-67
2021/07/10 10:52:33;;;;;;;5.30;4.65;;;;;;;32.00;39.33;99734.57;1748698;81;21017;-67
2021/07/10 10:55:10;;;;;;;7.17;4.97;;;;;;;31.94;37.91;99733.36;1724436;81;21005;-69
2021/07/10 10:57:58;;;;;;;6.10;5.05;;;;;;;31.68;36.88;99735.88;1721159;81;21015;-67
2021/07/10 11:00:29;;;;;;;8.80;4.85;;;;;;;31.68;38.72;99736.44;1761735;81;20919;-68
2021/07/10 11:03:05;;;;;;;7.33;4.85;;;;;;;31.66;37.41;99732.69;1761723;81;21075;-68
2021/07/10 11:05:37;;;;;;;7.50;5.12;;;;;;;31.55;38.51;99726.30;1743945;81;21026;-68
2021/07/10 11:08:25;;;;;;;10.00;4.85;;;;;;;31.48;38.12;99723.51;1762996;81;20934;-68
2021/07/10 11:11:01;;;;;;;;;;;;;;;31.69;40.37;99721.40;1760017;80;20983;-68
2021/07/10 11:13:59;;;;;;;8.35;4.72;;;;;;;31.92;37.76;99723.81;1762135;81;20082;-67
2021/07/10 11:16:26;;;;;;;9.45;5.08;;;;;;;31.88;37.25;99727.19;1766528;80;21099;-68
2021/07/10 11:19:03;;;;;;;22.15;5.92;;;;;;;32.50;38.35;99720.52;1761047;81;20905;-69
2021/07/10 11:21:41;;;;;;;8.73;5.00;;;;;;;32.08;38.42;99708.99;1761251;81;20968;-68
2021/07/10 11:24:22;;;;;;;9.53;4.85;;;;;;;32.15;37.20;99720.11;1763333;80;20991;-69
2021/07/10 11:27:00;;;;;;;8.45;4.87;;;;;;;32.08;37.38;99724.86;1784902;80;21340;-68
2021/07/10 11:29:38;;;;;;;7.92;5.40;;;;;;;31.19;37.47;99717.25;1784826;80;21104;-68
2021/07/10 11:32:16;;;;;;;9.98;4.87;;;;;;;31.48;37.05;99716.00;1784673;79;20877;-69
2021/07/10 11:34:59;;;;;;;9.48;4.75;;;;;;;32.02;36.88;99710.56;1768882;80;20919;-68
2021/07/10 11:37:30;;;;;;;10.82;4.62;;;;;;;32.15;37.23;99707.61;1733323;81;20860;-69
2021/07/10 11:40:00;;;;;;;5.95;4.67;;;;;;;32.01;37.39;99709.77;1732874;81;21378;-68